createdAt,value
2017-10-28T00:00:01.775Z,9.60
2017-10-28T00:01:04.420Z,9.60
2017-10-28T00:02:07.659Z,9.50
2017-10-28T00:03:10.849Z,9.50
2017-10-28T00:04:13.515Z,9.60
2017-10-28T00:05:16.304Z,9.50
2017-10-28T00:06:18.813Z,9.60
2017-10-28T00:07:22.944Z,9.50
2017-10-28T00:08:28.835Z,9.50
2017-10-28T00:09:38.186Z,9.50
2017-10-28T00:10:41.377Z,9.50
2017-10-28T00:11:44.444Z,9.50
2017-10-28T00:12:53.224Z,9.50
2017-10-28T00:13:58.140Z,9.50
2017-10-28T00:15:04.344Z,9.50
2017-10-28T00:16:08.752Z,9.50
2017-10-28T00:17:11.839Z,9.50
2017-10-28T00:18:16.138Z,9.50
2017-10-28T00:19:19.014Z,9.50
2017-10-28T00:20:21.648Z,9.50
2017-10-28T00:21:25.333Z,9.60
2017-10-28T00:22:28.015Z,9.60
2017-10-28T00:23:31.711Z,9.60
2017-10-28T00:24:36.135Z,9.60
2017-10-28T00:25:44.048Z,9.60
2017-10-28T00:26:51.815Z,9.60
2017-10-28T00:27:55.092Z,9.50
2017-10-28T00:28:59.514Z,9.50
2017-10-28T00:30:09.058Z,9.50
2017-10-28T00:31:19.081Z,9.50
2017-10-28T00:32:28.114Z,9.50
2017-10-28T00:33:36.727Z,9.50
2017-10-28T00:34:50.433Z,9.50
2017-10-28T00:36:06.235Z,9.40
2017-10-28T00:37:10.856Z,9.40
2017-10-28T00:38:17.198Z,9.40
2017-10-28T00:39:19.694Z,9.40
2017-10-28T00:40:24.236Z,9.40
2017-10-28T00:41:27.973Z,9.30
2017-10-28T00:42:32.230Z,9.30
2017-10-28T00:43:34.968Z,9.20
2017-10-28T00:44:37.782Z,9.30
2017-10-28T00:45:40.275Z,9.20
2017-10-28T00:46:49.309Z,9.20
2017-10-28T00:47:52.488Z,9.20
2017-10-28T00:48:55.877Z,9.20
2017-10-28T00:50:03.073Z,9.20
2017-10-28T00:51:08.749Z,9.20
2017-10-28T00:52:12.584Z,9.20
2017-10-28T00:53:17.534Z,9.20
2017-10-28T00:54:20.705Z,9.30
2017-10-28T00:55:25.192Z,9.20
2017-10-28T00:56:28.483Z,9.30
2017-10-28T00:57:31.996Z,9.30
2017-10-28T00:58:34.535Z,9.40
2017-10-28T00:59:37.468Z,9.40
2017-10-28T01:00:40.707Z,9.40
2017-10-28T01:01:43.575Z,9.50
2017-10-28T01:02:48.200Z,9.50
2017-10-28T01:03:51.999Z,9.50
2017-10-28T01:04:54.551Z,9.60
2017-10-28T01:05:57.270Z,9.70
2017-10-28T01:06:59.743Z,9.70
2017-10-28T01:08:02.295Z,9.70
2017-10-28T01:09:05.533Z,9.70
2017-10-28T01:10:09.255Z,9.70
2017-10-28T01:11:11.962Z,9.80
2017-10-28T01:12:17.944Z,9.80
2017-10-28T01:13:30.037Z,9.80
2017-10-28T01:14:33.113Z,9.80
2017-10-28T01:15:35.847Z,9.80
2017-10-28T01:16:38.328Z,9.80
2017-10-28T01:17:44.930Z,9.90
2017-10-28T01:18:49.359Z,9.80
2017-10-28T01:19:52.203Z,9.80
2017-10-28T01:20:55.989Z,9.70
2017-10-28T01:21:58.834Z,9.70
2017-10-28T01:23:02.101Z,9.60
2017-10-28T01:24:04.884Z,9.60
2017-10-28T01:25:07.588Z,9.50
2017-10-28T01:26:10.408Z,9.40
2017-10-28T01:27:13.144Z,9.40
2017-10-28T01:29:30.693Z,9.30
2017-10-28T01:30:33.197Z,9.30
2017-10-28T01:31:37.335Z,9.10
2017-10-28T01:32:39.875Z,9.10
2017-10-28T01:33:43.922Z,9.00
2017-10-28T01:34:46.401Z,9.00
2017-10-28T01:35:49.235Z,9.00
2017-10-28T01:36:56.000Z,8.90
2017-10-28T01:37:58.876Z,8.90
2017-10-28T01:39:01.441Z,8.80
2017-10-28T01:40:04.146Z,8.80
2017-10-28T01:41:06.638Z,8.70
2017-10-28T01:42:16.088Z,8.70
2017-10-28T01:43:19.339Z,8.80
2017-10-28T01:44:25.742Z,8.80
2017-10-28T01:45:28.265Z,8.80
2017-10-28T01:46:30.995Z,8.90
2017-10-28T01:47:34.367Z,8.90
2017-10-28T01:48:43.364Z,8.90
2017-10-28T01:49:50.770Z,9.10
2017-10-28T01:50:53.792Z,9.10
2017-10-28T01:51:56.285Z,9.20
2017-10-28T01:53:01.364Z,9.30
2017-10-28T01:54:05.076Z,9.30
2017-10-28T01:55:14.234Z,9.30
2017-10-28T01:56:17.838Z,9.40
2017-10-28T01:57:21.810Z,9.40
2017-10-28T01:58:25.712Z,9.30
2017-10-28T01:59:29.123Z,9.30
2017-10-28T02:00:31.628Z,9.30
2017-10-28T02:01:34.412Z,9.40
2017-10-28T02:02:37.685Z,9.30
2017-10-28T02:03:40.370Z,9.40
2017-10-28T02:04:42.848Z,9.30
2017-10-28T02:05:47.250Z,9.20
2017-10-28T02:06:50.891Z,9.20
2017-10-28T02:07:54.226Z,9.20
2017-10-28T02:09:03.887Z,9.20
2017-10-28T02:10:07.185Z,9.10
2017-10-28T02:11:14.634Z,9.20
2017-10-28T02:12:17.351Z,9.20
2017-10-28T02:13:21.849Z,9.10
2017-10-28T02:14:26.312Z,9.10
2017-10-28T02:15:29.144Z,9.00
2017-10-28T02:16:33.768Z,9.00
2017-10-28T02:17:36.612Z,9.00
2017-10-28T02:18:39.286Z,9.00
2017-10-28T02:19:41.879Z,8.90
2017-10-28T02:20:44.865Z,8.90
2017-10-28T02:21:47.659Z,8.90
2017-10-28T02:22:51.005Z,8.90
2017-10-28T02:23:54.107Z,8.90
2017-10-28T02:24:56.611Z,8.90
2017-10-28T02:26:00.126Z,8.80
2017-10-28T02:27:02.753Z,8.80
2017-10-28T02:28:06.797Z,8.90
2017-10-28T02:29:11.442Z,8.80
2017-10-28T02:30:13.907Z,8.80
2017-10-28T02:31:16.524Z,8.90
2017-10-28T02:32:21.294Z,8.90
2017-10-28T02:33:24.007Z,8.90
2017-10-28T02:34:27.277Z,8.90
2017-10-28T02:35:31.176Z,8.80
2017-10-28T02:36:34.753Z,8.80
2017-10-28T02:37:40.793Z,8.80
2017-10-28T02:38:43.280Z,8.80
2017-10-28T02:39:47.889Z,8.80
2017-10-28T02:40:50.555Z,8.80
2017-10-28T02:41:54.397Z,8.80
2017-10-28T02:43:00.710Z,8.80
2017-10-28T02:44:03.321Z,8.80
2017-10-28T02:45:07.026Z,8.80
2017-10-28T02:46:09.817Z,8.80
2017-10-28T02:47:12.621Z,8.80
2017-10-28T02:48:15.229Z,8.80
2017-10-28T02:49:17.749Z,8.70
2017-10-28T02:50:20.505Z,8.70
2017-10-28T02:51:23.203Z,8.70
2017-10-28T02:52:25.964Z,8.80
2017-10-28T02:53:28.473Z,8.80
2017-10-28T02:54:31.244Z,8.80
2017-10-28T02:55:33.727Z,8.80
2017-10-28T02:56:36.595Z,8.80
2017-10-28T02:57:39.344Z,8.80
2017-10-28T02:58:42.153Z,8.70
2017-10-28T02:59:44.634Z,8.70
2017-10-28T03:00:50.091Z,8.70
2017-10-28T03:01:57.614Z,8.70
2017-10-28T03:03:01.108Z,8.70
2017-10-28T03:04:04.979Z,8.70
2017-10-28T03:05:08.551Z,8.70
2017-10-28T03:06:13.539Z,8.70
2017-10-28T03:07:25.668Z,8.70
2017-10-28T03:08:29.800Z,8.70
2017-10-28T03:09:35.412Z,8.80
2017-10-28T03:10:37.923Z,8.80
2017-10-28T03:11:42.579Z,8.80
2017-10-28T03:12:45.061Z,8.90
2017-10-28T03:13:48.440Z,8.80
2017-10-28T03:14:50.930Z,8.80
2017-10-28T03:15:53.433Z,8.80
2017-10-28T03:16:55.967Z,8.80
2017-10-28T03:17:59.544Z,8.80
2017-10-28T03:19:02.832Z,8.70
2017-10-28T03:20:07.348Z,8.70
2017-10-28T03:21:09.820Z,8.60
2017-10-28T03:22:12.590Z,8.70
2017-10-28T03:23:15.135Z,8.60
2017-10-28T03:24:20.594Z,8.50
2017-10-28T03:25:23.110Z,8.50
2017-10-28T03:26:27.018Z,8.50
2017-10-28T03:27:30.444Z,8.40
2017-10-28T03:28:34.751Z,8.40
2017-10-28T03:29:37.524Z,8.40
2017-10-28T03:30:40.067Z,8.40
2017-10-28T03:31:43.186Z,8.40
2017-10-28T03:32:45.925Z,8.40
2017-10-28T03:33:49.399Z,8.30
2017-10-28T03:34:52.815Z,8.30
2017-10-28T03:35:57.149Z,8.20
2017-10-28T03:36:59.805Z,8.20
2017-10-28T03:38:03.034Z,8.20
2017-10-28T03:39:09.543Z,8.20
2017-10-28T03:40:13.635Z,8.10
2017-10-28T03:41:18.252Z,8.10
2017-10-28T03:42:21.151Z,8.20
2017-10-28T03:43:25.210Z,8.10
2017-10-28T03:44:29.269Z,8.10
2017-10-28T03:45:31.794Z,8.00
2017-10-28T03:46:35.470Z,8.10
2017-10-28T03:47:39.369Z,8.00
2017-10-28T03:48:43.617Z,7.90
2017-10-28T03:49:46.124Z,7.90
2017-10-28T03:50:48.863Z,7.90
2017-10-28T03:51:52.395Z,7.90
2017-10-28T03:52:58.978Z,8.00
2017-10-28T03:54:01.486Z,8.00
2017-10-28T03:55:04.152Z,8.10
2017-10-28T03:56:06.682Z,8.10
2017-10-28T03:57:09.639Z,8.20
2017-10-28T03:58:12.906Z,8.30
2017-10-28T03:59:18.062Z,8.30
2017-10-28T04:00:22.580Z,8.40
2017-10-28T04:01:25.251Z,8.40
2017-10-28T04:02:28.948Z,8.50
2017-10-28T04:03:31.784Z,8.50
2017-10-28T04:04:34.388Z,8.60
2017-10-28T04:05:38.488Z,8.60
2017-10-28T04:06:40.961Z,8.60
2017-10-28T04:07:43.727Z,8.50
2017-10-28T04:08:47.871Z,8.60
2017-10-28T04:09:50.736Z,8.60
2017-10-28T04:10:53.239Z,8.60
2017-10-28T04:11:56.968Z,8.60
2017-10-28T04:12:59.861Z,8.60
2017-10-28T04:14:09.556Z,8.50
2017-10-28T04:15:14.208Z,8.50
2017-10-28T04:16:17.912Z,8.40
2017-10-28T04:17:20.395Z,8.50
2017-10-28T04:18:24.810Z,8.40
2017-10-28T04:19:28.807Z,8.50
2017-10-28T04:20:32.192Z,8.50
2017-10-28T04:21:36.363Z,8.50
2017-10-28T04:22:39.047Z,8.50
2017-10-28T04:23:42.648Z,8.50
2017-10-28T04:24:48.190Z,8.50
2017-10-28T04:25:51.123Z,8.60
2017-10-28T04:26:54.438Z,8.60
2017-10-28T04:27:56.945Z,8.60
2017-10-28T04:29:06.153Z,8.70
2017-10-28T04:30:09.840Z,8.70
2017-10-28T04:31:18.640Z,8.70
2017-10-28T04:32:21.299Z,8.70
2017-10-28T04:33:24.951Z,8.80
2017-10-28T04:34:29.871Z,8.80
2017-10-28T04:35:32.736Z,8.80
2017-10-28T04:36:36.530Z,8.80
2017-10-28T04:37:39.762Z,8.80
2017-10-28T04:38:42.849Z,8.80
2017-10-28T04:39:45.353Z,8.80
2017-10-28T04:40:51.845Z,8.80
2017-10-28T04:41:54.513Z,8.70
2017-10-28T04:42:59.224Z,8.80
2017-10-28T04:44:03.537Z,8.80
2017-10-28T04:45:06.718Z,8.90
2017-10-28T04:46:10.453Z,8.90
2017-10-28T04:47:14.659Z,8.90
2017-10-28T04:48:17.151Z,8.90
2017-10-28T04:49:24.612Z,8.90
2017-10-28T04:50:28.202Z,8.90
2017-10-28T04:51:30.953Z,8.90
2017-10-28T04:52:33.440Z,8.90
2017-10-28T04:53:36.108Z,8.80
2017-10-28T04:54:38.654Z,8.80
2017-10-28T04:55:42.282Z,8.80
2017-10-28T04:56:45.500Z,8.70
2017-10-28T04:57:48.431Z,8.70
2017-10-28T04:58:51.046Z,8.80
2017-10-28T04:59:53.561Z,8.80
2017-10-28T05:00:57.555Z,8.90
2017-10-28T05:02:01.102Z,8.90
2017-10-28T05:03:03.770Z,9.00
2017-10-28T05:04:06.356Z,9.00
2017-10-28T05:05:12.755Z,9.00
2017-10-28T05:06:15.820Z,9.00
2017-10-28T05:07:18.487Z,9.00
2017-10-28T05:08:22.645Z,9.10
2017-10-28T05:09:26.061Z,9.00
2017-10-28T05:10:35.518Z,9.00
2017-10-28T05:11:38.519Z,8.90
2017-10-28T05:12:41.492Z,9.00
2017-10-28T05:13:44.232Z,9.00
2017-10-28T05:14:46.700Z,9.00
2017-10-28T05:15:51.474Z,9.00
2017-10-28T05:16:54.001Z,9.00
2017-10-28T05:17:58.306Z,9.00
2017-10-28T05:19:02.216Z,9.00
2017-10-28T05:20:05.168Z,9.10
2017-10-28T05:21:09.689Z,9.10
2017-10-28T05:22:13.753Z,9.10
2017-10-28T05:23:19.007Z,9.10
2017-10-28T05:24:21.897Z,9.10
2017-10-28T05:25:24.371Z,9.10
2017-10-28T05:26:33.178Z,9.10
2017-10-28T05:27:37.060Z,9.10
2017-10-28T05:28:42.775Z,9.10
2017-10-28T05:29:47.230Z,9.00
2017-10-28T05:30:50.557Z,9.00
2017-10-28T05:31:53.070Z,9.10
2017-10-28T05:32:57.390Z,9.00
2017-10-28T05:34:01.251Z,9.00
2017-10-28T05:35:14.829Z,9.00
2017-10-28T05:36:21.332Z,9.00
2017-10-28T05:37:27.026Z,8.90
2017-10-28T05:38:30.272Z,8.90
2017-10-28T05:39:34.858Z,8.90
2017-10-28T05:40:37.350Z,8.90
2017-10-28T05:41:40.327Z,8.90
2017-10-28T05:42:46.862Z,8.90
2017-10-28T05:43:51.042Z,8.90
2017-10-28T05:44:53.867Z,8.90
2017-10-28T05:45:57.662Z,8.90
2017-10-28T05:47:02.493Z,8.80
2017-10-28T05:48:13.183Z,8.80
2017-10-28T05:49:18.291Z,8.90
2017-10-28T05:50:20.883Z,8.90
2017-10-28T05:51:25.100Z,8.80
2017-10-28T05:52:29.759Z,8.80
2017-10-28T05:53:33.302Z,8.80
2017-10-28T05:54:36.583Z,8.80
2017-10-28T05:55:39.130Z,8.80
2017-10-28T05:56:43.922Z,8.90
2017-10-28T05:57:46.479Z,8.90
2017-10-28T05:58:53.725Z,8.90
2017-10-28T05:59:57.099Z,8.90
2017-10-28T06:01:00.556Z,8.90
2017-10-28T06:02:07.346Z,8.90
2017-10-28T06:03:09.871Z,8.90
2017-10-28T06:04:13.461Z,9.00
2017-10-28T06:05:17.249Z,9.00
2017-10-28T06:06:20.022Z,9.00
2017-10-28T06:07:22.586Z,9.10
2017-10-28T06:08:25.297Z,9.10
2017-10-28T06:09:31.672Z,9.10
2017-10-28T06:10:34.323Z,9.10
2017-10-28T06:11:39.156Z,9.10
2017-10-28T06:12:41.881Z,9.10
2017-10-28T06:13:44.437Z,9.10
2017-10-28T06:14:47.282Z,9.10
2017-10-28T06:15:50.599Z,9.20
2017-10-28T06:16:53.435Z,9.20
2017-10-28T06:17:55.968Z,9.20
2017-10-28T06:19:00.042Z,9.20
2017-10-28T06:20:03.118Z,9.20
2017-10-28T06:21:07.010Z,9.20
2017-10-28T06:22:11.395Z,9.20
2017-10-28T06:23:14.155Z,9.20
2017-10-28T06:24:18.310Z,9.30
2017-10-28T06:25:23.027Z,9.30
2017-10-28T06:26:26.870Z,9.30
2017-10-28T06:27:29.974Z,9.30
2017-10-28T06:28:33.244Z,9.30
2017-10-28T06:29:35.954Z,9.30
2017-10-28T06:30:38.433Z,9.30
2017-10-28T06:31:41.221Z,9.30
2017-10-28T06:32:44.402Z,9.30
2017-10-28T06:33:47.208Z,9.40
2017-10-28T06:34:49.727Z,9.40
2017-10-28T06:35:54.632Z,9.40
2017-10-28T06:36:57.135Z,9.50
2017-10-28T06:37:59.843Z,9.40
2017-10-28T06:39:03.129Z,9.50
2017-10-28T06:40:06.587Z,9.40
2017-10-28T06:41:09.200Z,9.40
2017-10-28T06:42:11.941Z,9.50
2017-10-28T06:43:14.455Z,9.40
2017-10-28T06:44:17.324Z,9.50
2017-10-28T06:45:20.805Z,9.50
2017-10-28T06:46:24.170Z,9.50
2017-10-28T06:47:27.436Z,9.50
2017-10-28T06:48:32.294Z,9.60
2017-10-28T06:49:35.226Z,9.60
2017-10-28T06:50:37.944Z,9.60
2017-10-28T06:51:40.449Z,9.60
2017-10-28T06:52:43.342Z,9.60
2017-10-28T06:53:46.050Z,9.60
2017-10-28T06:54:49.796Z,9.60
2017-10-28T06:55:53.157Z,9.70
2017-10-28T06:56:55.832Z,9.60
2017-10-28T06:57:59.121Z,9.70
2017-10-28T06:59:01.889Z,9.70
2017-10-28T07:00:04.460Z,9.70
2017-10-28T07:01:12.428Z,9.70
2017-10-28T07:02:14.978Z,9.70
2017-10-28T07:03:20.006Z,9.70
2017-10-28T07:04:29.904Z,9.70
2017-10-28T07:05:33.503Z,9.70
2017-10-28T07:06:37.744Z,9.70
2017-10-28T07:07:40.267Z,9.70
2017-10-28T07:08:44.804Z,9.70
2017-10-28T07:09:48.111Z,9.70
2017-10-28T07:10:53.848Z,9.70
2017-10-28T07:11:56.336Z,9.80
2017-10-28T07:12:59.788Z,9.70
2017-10-28T07:14:03.188Z,9.80
2017-10-28T07:15:08.419Z,9.80
2017-10-28T07:16:10.901Z,9.80
2017-10-28T07:17:13.489Z,9.80
2017-10-28T07:18:17.525Z,9.90
2017-10-28T07:19:20.982Z,10.00
2017-10-28T07:20:23.501Z,10.00
2017-10-28T07:21:26.422Z,10.00
2017-10-28T07:22:28.913Z,10.00
2017-10-28T07:23:32.270Z,10.10
2017-10-28T07:24:34.941Z,10.10
2017-10-28T07:25:38.692Z,10.10
2017-10-28T07:26:41.218Z,10.10
2017-10-28T07:27:44.049Z,10.10
2017-10-28T07:28:50.819Z,10.10
2017-10-28T07:29:57.731Z,10.10
2017-10-28T07:31:00.352Z,10.10
2017-10-28T07:32:03.208Z,10.20
2017-10-28T07:33:05.688Z,10.20
2017-10-28T07:34:09.132Z,10.20
2017-10-28T07:35:12.024Z,10.30
2017-10-28T07:36:15.644Z,10.20
2017-10-28T07:37:18.298Z,10.20
2017-10-28T07:38:21.016Z,10.20
2017-10-28T07:39:23.573Z,10.20
2017-10-28T07:40:26.611Z,10.20
2017-10-28T07:41:29.178Z,10.20
2017-10-28T07:42:32.003Z,10.20
2017-10-28T07:43:34.503Z,10.30
2017-10-28T07:44:37.970Z,10.20
2017-10-28T07:45:41.262Z,10.20
2017-10-28T07:46:44.895Z,10.30
2017-10-28T07:47:47.380Z,10.20
2017-10-28T07:48:50.175Z,10.30
2017-10-28T07:49:52.788Z,10.30
2017-10-28T07:50:56.270Z,10.30
2017-10-28T07:51:58.751Z,10.30
2017-10-28T07:53:06.294Z,10.20
2017-10-28T07:54:10.114Z,10.20
2017-10-28T07:55:14.779Z,10.30
2017-10-28T07:56:18.231Z,10.30
2017-10-28T07:57:23.586Z,10.30
2017-10-28T07:58:26.067Z,10.20
2017-10-28T07:59:30.131Z,10.20
2017-10-28T08:00:33.820Z,10.30
2017-10-28T08:01:38.872Z,10.30
2017-10-28T08:02:41.475Z,10.20
2017-10-28T08:03:51.419Z,10.30
2017-10-28T08:04:54.832Z,10.30
2017-10-28T08:05:57.563Z,10.30
2017-10-28T08:07:00.805Z,10.30
2017-10-28T08:08:04.984Z,10.30
2017-10-28T08:09:07.728Z,10.30
2017-10-28T08:10:11.980Z,10.30
2017-10-28T08:11:16.105Z,10.30
2017-10-28T08:12:23.422Z,10.30
2017-10-28T08:13:25.929Z,10.40
2017-10-28T08:14:29.679Z,10.50
2017-10-28T08:15:32.160Z,10.50
2017-10-28T08:16:35.152Z,10.60
2017-10-28T08:17:38.569Z,10.70
2017-10-28T08:18:44.749Z,10.70
2017-10-28T08:19:47.285Z,10.80
2017-10-28T08:20:49.903Z,10.90
2017-10-28T08:21:52.399Z,10.90
2017-10-28T08:22:58.472Z,10.90
2017-10-28T08:24:01.983Z,11.00
2017-10-28T08:25:06.618Z,11.00
2017-10-28T08:26:11.295Z,11.00
2017-10-28T08:27:13.881Z,10.90
2017-10-28T08:28:16.415Z,11.00
2017-10-28T08:29:19.404Z,10.90
2017-10-28T08:30:22.010Z,10.90
2017-10-28T08:31:24.572Z,10.90
2017-10-28T08:32:27.120Z,10.90
2017-10-28T08:33:29.986Z,11.00
2017-10-28T08:34:32.622Z,11.00
2017-10-28T08:35:36.956Z,11.00
2017-10-28T08:36:39.817Z,10.90
2017-10-28T08:37:42.485Z,11.00
2017-10-28T08:38:45.782Z,11.00
2017-10-28T08:39:48.391Z,10.90
2017-10-28T08:40:50.933Z,10.90
2017-10-28T08:41:53.733Z,10.90
2017-10-28T08:42:56.249Z,10.90
2017-10-28T08:43:59.253Z,10.90
2017-10-28T08:45:01.794Z,11.00
2017-10-28T08:46:05.059Z,10.90
2017-10-28T08:47:07.745Z,10.90
2017-10-28T08:48:10.447Z,10.80
2017-10-28T08:49:14.569Z,10.80
2017-10-28T08:50:19.128Z,10.70
2017-10-28T08:51:22.338Z,10.70
2017-10-28T08:52:26.503Z,10.80
2017-10-28T08:53:29.000Z,10.70
2017-10-28T08:54:32.860Z,10.80
2017-10-28T08:55:36.115Z,10.80
2017-10-28T08:56:38.820Z,10.80
2017-10-28T08:57:42.121Z,10.90
2017-10-28T08:58:44.789Z,10.80
2017-10-28T08:59:48.699Z,11.00
2017-10-28T09:00:51.352Z,11.10
2017-10-28T09:01:53.964Z,11.20
2017-10-28T09:02:56.472Z,11.20
2017-10-28T09:03:59.415Z,11.10
2017-10-28T09:05:01.912Z,11.20
2017-10-28T09:06:05.548Z,11.20
2017-10-28T09:07:08.145Z,11.20
2017-10-28T09:08:13.725Z,11.30
2017-10-28T09:09:16.419Z,11.30
2017-10-28T09:10:19.142Z,11.30
2017-10-28T09:11:22.602Z,11.10
2017-10-28T09:12:25.326Z,11.10
2017-10-28T09:13:29.641Z,11.10
2017-10-28T09:14:32.473Z,11.10
2017-10-28T09:15:35.828Z,11.20
2017-10-28T09:16:38.521Z,11.20
2017-10-28T09:17:41.034Z,11.30
2017-10-28T09:18:43.797Z,11.30
2017-10-28T09:19:46.421Z,11.30
2017-10-28T09:20:49.080Z,11.30
2017-10-28T09:21:51.902Z,11.30
2017-10-28T09:22:54.780Z,11.30
2017-10-28T09:23:57.290Z,11.40
2017-10-28T09:25:00.600Z,11.30
2017-10-28T09:26:03.096Z,11.30
2017-10-28T09:27:05.683Z,11.40
2017-10-28T09:28:08.179Z,11.30
2017-10-28T09:29:11.834Z,11.50
2017-10-28T09:30:14.343Z,11.40
2017-10-28T09:31:18.254Z,11.50
2017-10-28T09:32:20.748Z,11.40
2017-10-28T09:33:23.556Z,11.50
2017-10-28T09:34:26.037Z,11.50
2017-10-28T09:35:28.613Z,11.50
2017-10-28T09:36:31.131Z,11.60
2017-10-28T09:37:33.996Z,11.50
2017-10-28T09:38:36.508Z,11.60
2017-10-28T09:39:40.507Z,11.50
2017-10-28T09:40:42.991Z,11.60
2017-10-28T09:41:46.686Z,11.50
2017-10-28T09:42:50.579Z,11.60
2017-10-28T09:43:53.944Z,11.60
2017-10-28T09:44:57.390Z,11.60
2017-10-28T09:46:01.057Z,11.50
2017-10-28T09:47:04.340Z,11.50
2017-10-28T09:48:07.956Z,11.50
2017-10-28T09:49:10.444Z,11.50
2017-10-28T09:50:13.902Z,11.50
2017-10-28T09:51:17.220Z,11.50
2017-10-28T09:52:20.782Z,11.40
2017-10-28T09:53:23.320Z,11.40
2017-10-28T09:54:25.892Z,11.40
2017-10-28T09:55:29.169Z,11.30
2017-10-28T09:56:32.806Z,11.30
2017-10-28T09:57:38.237Z,11.30
2017-10-28T09:58:41.100Z,11.30
2017-10-28T09:59:44.249Z,11.30
2017-10-28T10:00:47.726Z,11.20
2017-10-28T10:01:50.252Z,11.20
2017-10-28T10:02:53.681Z,11.20
2017-10-28T10:03:58.133Z,11.20
2017-10-28T10:05:00.652Z,11.20
2017-10-28T10:06:03.214Z,11.20
2017-10-28T10:07:05.812Z,11.20
2017-10-28T10:08:10.071Z,11.20
2017-10-28T10:09:12.576Z,11.20
2017-10-28T10:10:17.836Z,11.10
2017-10-28T10:11:20.460Z,11.00
2017-10-28T10:12:25.329Z,11.10
2017-10-28T10:13:31.095Z,11.10
2017-10-28T10:14:34.159Z,11.00
2017-10-28T10:15:39.145Z,11.00
2017-10-28T10:16:43.175Z,11.00
2017-10-28T10:17:45.874Z,11.00
2017-10-28T10:18:51.400Z,11.00
2017-10-28T10:19:55.135Z,11.00
2017-10-28T10:20:57.853Z,11.00
2017-10-28T10:22:02.067Z,11.10
2017-10-28T10:23:05.261Z,11.20
2017-10-28T10:24:08.743Z,11.20
2017-10-28T10:25:11.551Z,11.20
2017-10-28T10:26:14.628Z,11.10
2017-10-28T10:27:17.202Z,11.20
2017-10-28T10:28:20.500Z,11.20
2017-10-28T10:29:25.657Z,11.20
2017-10-28T10:30:28.132Z,11.20
2017-10-28T10:31:31.870Z,11.30
2017-10-28T10:32:35.328Z,11.30
2017-10-28T10:33:38.196Z,11.30
2017-10-28T10:34:41.453Z,11.20
2017-10-28T10:35:44.965Z,11.30
2017-10-28T10:36:47.617Z,11.30
2017-10-28T10:37:52.155Z,11.30
2017-10-28T10:38:55.775Z,11.40
2017-10-28T10:39:58.447Z,11.50
2017-10-28T10:41:03.210Z,11.50
2017-10-28T10:42:05.981Z,11.50
2017-10-28T10:43:08.453Z,11.50
2017-10-28T10:44:11.887Z,11.50
2017-10-28T10:45:14.907Z,11.50
2017-10-28T10:46:17.545Z,11.50
2017-10-28T10:47:22.102Z,11.60
2017-10-28T10:48:25.208Z,11.60
2017-10-28T10:49:27.732Z,11.70
2017-10-28T10:50:30.362Z,11.60
2017-10-28T10:51:32.888Z,11.40
2017-10-28T10:52:35.845Z,11.50
2017-10-28T10:53:39.644Z,11.50
2017-10-28T10:54:43.062Z,11.50
2017-10-28T10:55:45.564Z,11.40
2017-10-28T10:56:49.140Z,11.50
2017-10-28T10:57:51.629Z,11.50
2017-10-28T10:58:55.081Z,11.60
2017-10-28T10:59:59.634Z,11.60
2017-10-28T11:01:03.180Z,11.70
2017-10-28T11:02:05.691Z,11.70
2017-10-28T11:03:09.191Z,11.70
2017-10-28T11:04:12.176Z,11.70
2017-10-28T11:05:14.941Z,11.80
2017-10-28T11:06:17.444Z,11.80
2017-10-28T11:07:20.130Z,11.90
2017-10-28T11:08:22.622Z,11.90
2017-10-28T11:09:26.331Z,12.00
2017-10-28T11:10:28.808Z,12.00
2017-10-28T11:11:31.443Z,12.00
2017-10-28T11:12:34.843Z,12.00
2017-10-28T11:13:41.240Z,12.00
2017-10-28T11:14:43.888Z,11.90
2017-10-28T11:15:47.163Z,12.00
2017-10-28T11:16:50.269Z,12.00
2017-10-28T11:17:54.961Z,12.10
2017-10-28T11:18:57.670Z,12.10
2017-10-28T11:20:01.437Z,12.00
2017-10-28T11:21:03.992Z,12.10
2017-10-28T11:22:07.628Z,12.10
2017-10-28T11:23:10.159Z,12.10
2017-10-28T11:24:13.162Z,12.10
2017-10-28T11:25:15.817Z,12.00
2017-10-28T11:26:18.653Z,12.00
2017-10-28T11:27:22.019Z,12.00
2017-10-28T11:28:25.268Z,12.00
2017-10-28T11:29:29.862Z,11.90
2017-10-28T11:30:33.312Z,11.90
2017-10-28T11:31:36.845Z,11.90
2017-10-28T11:32:39.771Z,11.90
2017-10-28T11:33:43.811Z,11.90
2017-10-28T11:34:46.693Z,11.80
2017-10-28T11:35:49.816Z,11.90
2017-10-28T11:36:53.358Z,11.90
2017-10-28T11:37:55.935Z,11.90
2017-10-28T11:38:58.632Z,11.80
2017-10-28T11:40:01.240Z,11.90
2017-10-28T11:41:04.689Z,12.00
2017-10-28T11:42:07.346Z,12.00
2017-10-28T11:43:10.856Z,12.00
2017-10-28T11:44:13.408Z,12.00
2017-10-28T11:45:16.627Z,11.90
2017-10-28T11:46:19.894Z,12.20
2017-10-28T11:47:23.392Z,12.10
2017-10-28T11:48:25.877Z,12.10
2017-10-28T11:49:31.140Z,12.10
2017-10-28T11:50:33.662Z,12.00
2017-10-28T11:51:37.869Z,11.90
2017-10-28T11:52:41.230Z,11.90
2017-10-28T11:53:45.580Z,11.90
2017-10-28T11:54:48.113Z,11.90
2017-10-28T11:55:50.920Z,11.90
2017-10-28T11:56:54.594Z,11.90
2017-10-28T11:58:01.812Z,11.90
2017-10-28T11:59:04.382Z,11.90
2017-10-28T12:00:07.958Z,11.90
2017-10-28T12:01:18.821Z,11.90
2017-10-28T12:02:32.265Z,11.90
2017-10-28T12:04:40.543Z,11.90
2017-10-28T12:05:43.318Z,11.90
2017-10-28T12:06:47.702Z,11.90
2017-10-28T12:07:52.224Z,11.90
2017-10-28T12:08:56.737Z,11.90
2017-10-28T12:09:59.653Z,11.90
2017-10-28T12:11:02.221Z,11.80
2017-10-28T12:12:05.141Z,11.90
2017-10-28T12:13:10.138Z,11.90
2017-10-28T12:14:12.959Z,11.90
2017-10-28T12:15:16.438Z,11.80
2017-10-28T12:16:19.075Z,11.80
2017-10-28T12:17:23.324Z,11.90
2017-10-28T12:18:25.981Z,11.90
2017-10-28T12:19:30.850Z,12.00
2017-10-28T12:20:34.196Z,12.00
2017-10-28T12:21:37.116Z,12.10
2017-10-28T12:22:42.062Z,12.10
2017-10-28T12:23:45.353Z,12.30
2017-10-28T12:24:50.067Z,12.30
2017-10-28T12:25:52.581Z,12.20
2017-10-28T12:26:56.120Z,12.30
2017-10-28T12:27:59.398Z,12.30
2017-10-28T12:29:02.930Z,12.30
2017-10-28T12:30:05.484Z,12.40
2017-10-28T12:31:09.217Z,12.30
2017-10-28T12:32:12.421Z,12.40
2017-10-28T12:33:15.511Z,12.40
2017-10-28T12:34:18.978Z,12.40
2017-10-28T12:35:21.610Z,12.50
2017-10-28T12:36:25.813Z,12.50
2017-10-28T12:37:28.836Z,12.50
2017-10-28T12:38:32.423Z,12.50
2017-10-28T12:39:36.499Z,12.50
2017-10-28T12:40:39.759Z,12.50
2017-10-28T12:41:43.239Z,12.50
2017-10-28T12:42:46.549Z,12.50
2017-10-28T12:43:50.063Z,12.50
2017-10-28T12:44:52.615Z,12.50
2017-10-28T12:45:56.127Z,12.60
2017-10-28T12:46:58.647Z,12.60
2017-10-28T12:48:01.734Z,12.60
2017-10-28T12:49:05.133Z,12.60
2017-10-28T12:50:09.128Z,12.50
2017-10-28T12:51:11.781Z,12.60
2017-10-28T12:52:16.295Z,12.60
2017-10-28T12:53:19.715Z,12.60
2017-10-28T12:54:22.777Z,12.60
2017-10-28T12:55:25.954Z,12.60
2017-10-28T12:56:28.516Z,12.70
2017-10-28T12:57:31.076Z,12.70
2017-10-28T12:58:33.871Z,12.70
2017-10-28T12:59:37.394Z,12.70
2017-10-28T13:00:41.613Z,12.60
2017-10-28T13:01:45.030Z,12.70
2017-10-28T13:02:49.702Z,12.60
2017-10-28T13:03:52.255Z,12.60
2017-10-28T13:04:54.777Z,12.70
2017-10-28T13:05:57.411Z,12.60
2017-10-28T13:07:00.741Z,12.60
2017-10-28T13:08:04.060Z,12.60
2017-10-28T13:09:06.931Z,12.60
2017-10-28T13:10:09.606Z,12.50
2017-10-28T13:11:12.140Z,12.50
2017-10-28T13:12:15.350Z,12.50
2017-10-28T13:13:17.826Z,12.50
2017-10-28T13:14:20.568Z,12.50
2017-10-28T13:15:25.151Z,12.50
2017-10-28T13:16:28.691Z,12.50
2017-10-28T13:17:31.282Z,12.50
2017-10-28T13:18:33.942Z,12.50
2017-10-28T13:19:37.469Z,12.50
2017-10-28T13:20:41.235Z,12.40
2017-10-28T13:21:44.045Z,12.40
2017-10-28T13:22:46.597Z,12.40
2017-10-28T13:23:49.221Z,12.40
2017-10-28T13:24:53.657Z,12.40
2017-10-28T13:25:56.921Z,12.40
2017-10-28T13:26:59.704Z,12.30
2017-10-28T13:28:05.227Z,12.30
2017-10-28T13:29:08.343Z,12.30
2017-10-28T13:30:11.726Z,12.30
2017-10-28T13:31:15.348Z,12.30
2017-10-28T13:32:17.852Z,12.30
2017-10-28T13:33:20.770Z,12.40
2017-10-28T13:34:23.961Z,12.40
2017-10-28T13:35:27.153Z,12.40
2017-10-28T13:36:29.650Z,12.40
2017-10-28T13:37:33.224Z,12.40
2017-10-28T13:38:35.755Z,12.40
2017-10-28T13:39:38.556Z,12.40
2017-10-28T13:40:41.147Z,12.40
2017-10-28T13:41:43.882Z,12.40
2017-10-28T13:42:47.398Z,12.50
2017-10-28T13:43:50.211Z,12.50
2017-10-28T13:44:54.433Z,12.50
2017-10-28T13:45:57.280Z,12.50
2017-10-28T13:47:01.215Z,12.90
2017-10-28T13:48:04.671Z,12.90
2017-10-28T13:49:08.070Z,13.40
2017-10-28T13:50:11.758Z,13.60
2017-10-28T13:51:15.194Z,13.60
2017-10-28T13:52:18.860Z,13.60
2017-10-28T13:53:21.367Z,13.70
2017-10-28T13:54:24.396Z,13.90
2017-10-28T13:55:27.799Z,13.70